Morro Bay, CA (93442)

02:49 AM PDT am 22. August 2014 (GMT -0700)
Bonita and Hwy 1 | Change Station
CLOSE
Current Station
Persönliche Wetterstationen
Location: Morro Bay, CA
Höhe: 45 ft
Wetterstationen in der Umgebung

Höhe 45 ft 35.39 °N, 120.86 °W | Updated 2 seconds ago

Overcast
Bedeckt
61.3 °F
gefühlte 61.3 °F
N
2.0
Wind Wechselnd Wind aus Ost-Nordost
Gusts 4.0 mph

Heute
Max. -- | schwach -- °F
--% Regenrisiko
Gestern
Max. -- | schwach -- °F
Precip. -- inch
6:28 AM 7:43 PM
Letztes Viertel, 9% visible
Druck 29.96 inch
Sichtweite 10.0 Meilen
Wolken Bedeckt 700 ft
Taupunkt 56 °F
Feuchtigkeit 88%
Regen 0.00 inch
Schneehöhe Nicht verfügbar..
UV 0 von 12
Pollen 7.50 von 12
Luftqualität Nicht verfügbar..
Flu Activity Nicht verfügbar..
METAR KSBP 220856Z AUTO 00000KT 10SM OVC007 16/14 A2996 RMK AO2 SLP143 T01560144 50000

More Conditions Fewer Conditions

Druck 29.96 inch
Sichtweite 10.0 Meilen
Wolken Bedeckt 700 ft
Taupunkt 56 °F
Feuchtigkeit 88%
Regen 0.00 inch
Schneehöhe Nicht verfügbar..
UV 0 von 12
Pollen 7.50 von 12
Luftqualität Nicht verfügbar..
Flu Activity Nicht verfügbar..
METAR KSBP 220856Z AUTO 00000KT 10SM OVC007 16/14 A2996 RMK AO2 SLP143 T01560144 50000

More Conditions Fewer Conditions

10-Day Weather Forecast

Almanac

Astronomie

Aug. 22, 2014 Aufgang Untergang
Genaue Zeit 06:28 PDT 19:43 PDT
Bürgerliche Dämmerung 06:01 PDT 20:10 PDT
Nautische Dämmerung 05:30 PDT 20:41 PDT
Astronomische Dämmerung 04:57 PDT 21:14 PDT
Mond 03:58 PDT 17:53 PDT
Länge des sichtbaren Lichts 14h 08m
Tageslänge
13h 15m
Tomorrow will be 2m 2s shorter.
Letztes Viertel, 9% of the Moon is Illuminated
Heute
Letztes Viertel
Aug 25
Neu
Sept 2
Erstes Viertel
Sept 8
Vollmond
Sept 15
Letztes Viertel

Heutige Rekorde

State Highs State Lows

Community

WunderPhotos

Upload Photos

1,746,146 Fotos hochgeladen!

Nearby

Schneehöhe

Station Depth Höhe
Leavitt Lake 0 in 9400 ft
Leavitt Meadows 1 in 7200 ft
Ebbetts Pass 0 in 8700 ft
Blue Lakes 0 in 8000 ft
Forestdale Creek 0 in 8029 ft

Erdbebenaktivität

Stadt Distance Mag. Time & Date
King City, California 63 Meilen 2.7 22:26 PDT
2014-08-15
Minimum magnitude displayed is 2.5.

küstennahe Wassertemperaturen

Ort Temperatur
Kein Stationsbericht

Wetterstationen in der Umgebung